• Join FlightAware (Why Join?)
  • Login
  • US Flag 
03:03AM EDT


 

Airport Tracker/Info


-or-


 

Live Flight TrackerFlight Track Log ✈ UAL481 ✈ 17-Jun-2013 ✈ KALB - KORD

Flight Track Log - Related Links

Times and Time Zones

All times are in EDT time to prevent confusion due to time zone crossing. See the UAL481 flight status page for this flight to view local times or setup timezone preferences in your user account.

Time Position Orientation Groundspeed Altitude Reporting Facility
EDT Latitude Longitude Course Direction KTS MPH feet Rate Location/Type
05:57PM 42.7214 -73.8164 220° Southwest 155 178 1,400  Level Boston Center
05:58PM 42.7044 -73.8358 220° Southwest 179 206 2,000 2,040 Climbing Boston Center
05:59PM 42.6867 -73.9172 253° West 245 282 4,500 2,820 Climbing Boston Center
06:00PM 42.6817 -73.9961 265° West 256 295 7,500 3,240 Climbing Boston Center
06:01PM 42.6864 -74.0953 274° West 259 298 10,900 2,640 Climbing Boston Center
06:02PM 42.7014 -74.2003 281° West 270 311 12,800 2,220 Climbing Boston Center
06:03PM 42.7353 -74.3114 293° West 295 339 15,400 2,460 Climbing Boston Center
06:04PM 42.7622 -74.4281 287° West 322 371 17,800 2,400 Climbing Boston Center
06:05PM 42.7872 -74.5536 285° West 335 386 20,200 2,160 Climbing Boston Center
06:06PM 42.8139 -74.6761 287° West 341 392 22,200 2,280 Climbing Boston Center
06:07PM 42.8428 -74.7989 288° West 341 392 24,800 2,100 Climbing Boston Center
06:08PM 42.8736 -74.9219 289° West 341 392 26,500 1,080 Climbing Boston Center
06:09PM 42.9000 -75.0478 286° West 341 392 27,300 600 Climbing Boston Center
06:10PM 42.9358 -75.2081 287° West 357 411 27,900 300 Climbing Boston Center
06:11PM 42.9697 -75.3458 289° West 370 426 27,900  Level Boston Center
06:12PM 43.0017 -75.4867 287° West 380 437 27,900  Level Boston Center
06:13PM 43.0314 -75.6186 287° West 380 437 27,900  Level Boston Center
06:14PM 43.0608 -75.7567 286° West 385 443 27,900  Level Boston Center
06:15PM 43.0922 -75.8919 288° West 385 443 27,900  Level Boston Center
06:16PM 43.1197 -76.0158 287° West 380 437 27,900  Level Boston Center
06:18PM 43.1592 -76.2625 282° West 377 434 27,900  Level Cleveland Center
06:19PM 43.1622 -76.4075 272° West 377 434 27,900  Level Cleveland Center
06:20PM 43.1589 -76.5500 268° West 372 428 27,900  Level Cleveland Center
06:21PM 43.1597 -76.6922 271° West 377 434 27,900  Level Cleveland Center
06:22PM 43.1597 -76.8147 270° West 377 434 28,000  Climbing Cleveland Center
06:23PM 43.1581 -76.9600 269° West 377 434 28,000  Level Cleveland Center
06:24PM 43.1581 -77.1022 270° West 377 434 28,000 540 Level Cleveland Center
06:25PM 43.1581 -77.2419 270° West 377 434 29,100 960 Climbing Cleveland Center
06:26PM 43.1558 -77.3814 269° West 377 434 30,000 420 Climbing Cleveland Center
06:27PM 43.1536 -77.5297 269° West 382 440 30,000  Level Cleveland Center
06:28PM 43.1511 -77.6747 269° West 382 440 30,000  Level Cleveland Center
06:29PM 43.1506 -77.8256 270° West 387 445 30,000  Level Cleveland Center
06:30PM 43.1497 -77.9739 270° West 387 445 30,000 -60 Level Cleveland Center
06:31PM 43.1467 -78.1189 268° West 387 445 29,900 -60 Descending Cleveland Center
06:32PM 43.1436 -78.2642 268° West 387 445 29,900  Level Cleveland Center
06:33PM 43.1400 -78.4094 268° West 387 445 30,000  Climbing Cleveland Center
06:34PM 43.1386 -78.5547 269° West 387 445 29,900 -60 Descending Cleveland Center
06:35PM 43.1325 -78.6972 267° West 387 445 29,900  Level Cleveland Center
06:36PM 43.1306 -78.8394 269° West 387 445 29,900  Level Cleveland Center
06:37PM 43.1167 -79.0000 263° West 380 437 30,000  Climbing Toronto Center
06:38PM 43.1167 -79.1333 270° West 380 437 30,000  Level Toronto Center
06:39PM 43.1000 -79.2833 261° West 380 437 30,000  Level Toronto Center
06:40PM 43.1000 -79.4333 270° West 380 437 30,000  Level Toronto Center
06:41PM 43.1000 -79.5667 270° West 380 437 30,000  Level Toronto Center
06:42PM 43.0833 -79.7000 260° West 380 437 30,000  Level Toronto Center
06:43PM 43.0833 -79.8333 270° West 380 437 30,000  Level Toronto Center
06:44PM 43.0833 -80.0000 270° West 380 437 30,000  Level Toronto Center
06:45PM 43.0667 -80.1333 260° West 380 437 30,000  Level Toronto Center
06:46PM 43.0667 -80.3000 270° West 380 437 30,000  Level Toronto Center
06:47PM 43.0667 -80.4333 270° West 380 437 30,000  Level Toronto Center
06:48PM 43.0500 -80.5667 260° West 380 437 30,000  Level Toronto Center
06:49PM 43.0500 -80.7000 270° West 380 437 30,000  Level Toronto Center
06:50PM 43.0333 -80.8500 261° West 380 437 30,000  Level Toronto Center
06:51PM 43.0167 -81.0000 261° West 380 437 30,000  Level Toronto Center
06:52PM 43.0167 -81.1333 270° West 380 437 30,000  Level Toronto Center
06:53PM 43.0167 -81.2667 270° West 380 437 30,000  Level Toronto Center
06:54PM 43.0167 -81.4333 270° West 380 437 30,000  Level Toronto Center
06:55PM 43.0167 -81.5667 270° West 380 437 30,000  Level Toronto Center
06:56PM 43.0000 -81.7000 260° West 360 414 30,000  Level Toronto Center
06:57PM 42.9833 -81.8500 261° West 340 391 30,000  Level Toronto Center
06:58PM 42.9667 -81.9500 257° West 340 391 30,000  Level Toronto Center
06:59PM 42.9500 -82.1000 261° West 350 403 30,000  Level Toronto Center
07:00PM 42.9500 -82.2333 270° West 350 403 30,000  Level Toronto Center
07:01PM 42.9333 -82.3667 260° West 350 403 30,000 -60 Level Toronto Center
07:02PM 42.9167 -82.4833 259° West 340 391 29,900 -60 Descending Toronto Center
07:03PM 42.9167 -82.6167 270° West 340 391 29,900  Level Toronto Center
07:03PM 42.9128 -82.6469 260° West 351 404 29,900 60 Level Cleveland Center
07:04PM 42.9000 -82.7656 262° West 344 396 30,000  Climbing Cleveland Center
07:05PM 42.8897 -82.8758 263° West 324 373 30,000  Level Cleveland Center
07:06PM 42.8792 -82.9858 263° West 309 356 30,000  Level Cleveland Center
07:07PM 42.8725 -83.0961 265° West 303 349 30,000 -60 Level Cleveland Center
07:08PM 42.8678 -83.2119 267° West 303 349 29,900 -60 Descending Cleveland Center
07:09PM 42.8633 -83.3167 267° West 297 342 29,900  Level Cleveland Center
07:10PM 42.8647 -83.4300 271° West 290 334 30,000  Climbing Cleveland Center
07:11PM 42.8681 -83.5519 272° West 301 346 30,000  Level Cleveland Center
07:12PM 42.8686 -83.6881 270° West 330 380 30,000  Level Cleveland Center
07:13PM 42.8711 -83.8214 272° West 351 404 30,000  Level Cleveland Center
07:14PM 42.8731 -83.9689 271° West 356 410 30,000 -60 Level Cleveland Center
07:15PM 42.8758 -84.0881 272° West 356 410 29,900 -120 Descending Cleveland Center
07:16PM 42.8781 -84.1714 272° West 352 405 29,900 60 Level Chicago Center
07:17PM 42.8811 -84.3053 272° West 354 407 30,000  Climbing Chicago Center
07:18PM 42.8828 -84.4403 271° West 358 412 30,000  Level Chicago Center
07:19PM 42.8842 -84.5767 271° West 361 415 30,000  Level Chicago Center
07:20PM 42.8711 -84.7136 263° West 366 421 30,000  Level Chicago Center
07:21PM 42.8575 -84.8483 262° West 362 417 30,000  Level Chicago Center
07:22PM 42.8494 -85.0094 266° West 371 427 30,000  Level Chicago Center
07:23PM 42.8656 -85.1431 279° West 364 419 30,000  Level Chicago Center
07:24PM 42.8844 -85.2775 281° West 361 415 30,000 -480 Level Chicago Center
07:25PM 42.9022 -85.4142 280° West 365 420 29,100 -1,020 Descending Chicago Center
07:26PM 42.9214 -85.5600 280° West 383 441 27,900 -1,140 Descending Chicago Center
07:27PM 42.9403 -85.7058 280° West 390 449 26,800 -1,140 Descending Chicago Center
07:28PM 42.9617 -85.8728 280° West 376 433 25,600 -1,080 Descending Chicago Center
07:29PM 42.9786 -86.0131 279° West 365 420 24,600 -1,020 Descending Chicago Center
07:30PM 42.9975 -86.1506 281° West 358 412 23,600 -1,020 Descending Chicago Center
07:31PM 43.0144 -86.2858 280° West 359 413 22,600 -1,020 Descending Chicago Center
07:32PM 43.0306 -86.4194 279° West 356 410 21,600 -1,020 Descending Chicago Center
07:33PM 43.0472 -86.5528 280° West 357 411 20,600 -1,020 Descending Chicago Center
07:34PM 43.0631 -86.6822 280° West 349 402 19,600 -960 Descending Chicago Center
07:35PM 43.0783 -86.8094 279° West 342 394 18,600 -1,080 Descending Chicago Center
07:36PM 43.0969 -86.9628 279° West 341 392 17,400 -1,080 Descending Chicago Center
07:37PM 43.1117 -87.0900 279° West 340 391 16,400 -1,020 Descending Chicago Center
07:38PM 43.1264 -87.2167 279° West 338 389 15,400 -1,200 Descending Chicago Center
07:39PM 43.1222 -87.3383 267° West 334 384 14,000 -1,500 Descending Chicago Center
07:40PM 43.0456 -87.4325 222° Southwest 344 396 12,400 -1,500 Descending Chicago Center
07:41PM 42.9744 -87.5200 222° Southwest 344 396 10,900 -900 Descending Chicago Center
07:43PM 42.9097 -87.5964 221° Southwest 319 367 10,600 -1,020 Descending Chicago Center
07:44PM 42.8128 -87.5911 178° South 302 348 8,900 -1,560 Descending Chicago Center
07:45PM 42.7311 -87.5756 172° South 297 342 7,400 -960 Descending Chicago Center
07:46PM 42.6500 -87.5631 174° South 294 338 7,000 -240 Descending Chicago Center
07:47PM 42.5686 -87.5517 174° South 294 338 6,900 -60 Descending Chicago Center
07:48PM 42.4878 -87.5411 174° South 292 336 6,900 -60 Level Chicago Center
07:49PM 42.4086 -87.5331 176° South 286 329 6,800 -540 Descending Chicago Center
07:50PM 42.3172 -87.5206 174° South 283 326 5,900 -480 Descending Chicago Center
07:51PM 42.2472 -87.5108 174° South 283 326 5,900 -420 Level Chicago Center
07:52PM 42.1536 -87.5036 177° South 281 323 5,100 -900 Descending Chicago Center
07:53PM 42.0808 -87.5314 196° South 272 313 4,100 -600 Descending Chicago Center
07:54PM 42.0303 -87.5833 217° Southwest 260 299 3,900 -240 Descending Chicago Center